sensor_id;sensor_type;location;lat;lon;timestamp;P1;durP1;ratioP1;P2;durP2;ratioP2
51288;SDS011;37372;52.294;5.152;2023-06-14T00:01:46;5.95;;;2.60;;
51288;SDS011;37372;52.294;5.152;2023-06-14T00:04:12;9.60;;;2.92;;
51288;SDS011;37372;52.294;5.152;2023-06-14T00:06:41;9.45;;;2.70;;
51288;SDS011;37372;52.294;5.152;2023-06-14T00:09:07;6.28;;;3.03;;
51288;SDS011;37372;52.294;5.152;2023-06-14T00:11:53;10.00;;;3.90;;
51288;SDS011;37372;52.294;5.152;2023-06-14T00:14:18;6.53;;;3.05;;
51288;SDS011;37372;52.294;5.152;2023-06-14T00:16:44;9.30;;;2.67;;
51288;SDS011;37372;52.294;5.152;2023-06-14T00:19:17;8.93;;;2.90;;
51288;SDS011;37372;52.294;5.152;2023-06-14T00:21:44;7.18;;;2.55;;
51288;SDS011;37372;52.294;5.152;2023-06-14T00:24:10;9.63;;;3.88;;
51288;SDS011;37372;52.294;5.152;2023-06-14T00:26:36;7.97;;;2.75;;
51288;SDS011;37372;52.294;5.152;2023-06-14T00:29:01;11.43;;;3.25;;
51288;SDS011;37372;52.294;5.152;2023-06-14T00:31:32;6.78;;;2.75;;
51288;SDS011;37372;52.294;5.152;2023-06-14T00:34:05;9.75;;;2.58;;
51288;SDS011;37372;52.294;5.152;2023-06-14T00:36:34;12.20;;;3.05;;
51288;SDS011;37372;52.294;5.152;2023-06-14T00:39:00;7.45;;;2.72;;
51288;SDS011;37372;52.294;5.152;2023-06-14T00:41:27;7.43;;;2.55;;
51288;SDS011;37372;52.294;5.152;2023-06-14T00:43:55;9.95;;;2.35;;
51288;SDS011;37372;52.294;5.152;2023-06-14T00:46:21;7.78;;;2.55;;
51288;SDS011;37372;52.294;5.152;2023-06-14T00:48:48;6.95;;;2.35;;
51288;SDS011;37372;52.294;5.152;2023-06-14T00:51:13;7.97;;;2.92;;
51288;SDS011;37372;52.294;5.152;2023-06-14T00:53:39;11.52;;;2.60;;
51288;SDS011;37372;52.294;5.152;2023-06-14T00:56:05;9.20;;;2.65;;
51288;SDS011;37372;52.294;5.152;2023-06-14T00:58:38;4.65;;;2.75;;
51288;SDS011;37372;52.294;5.152;2023-06-14T01:01:07;14.60;;;3.40;;
51288;SDS011;37372;52.294;5.152;2023-06-14T01:03:33;6.47;;;2.90;;
51288;SDS011;37372;52.294;5.152;2023-06-14T01:06:01;6.57;;;2.60;;
51288;SDS011;37372;52.294;5.152;2023-06-14T01:08:57;8.20;;;2.53;;
51288;SDS011;37372;52.294;5.152;2023-06-14T01:11:38;8.00;;;2.35;;
51288;SDS011;37372;52.294;5.152;2023-06-14T01:14:15;6.40;;;2.75;;
51288;SDS011;37372;52.294;5.152;2023-06-14T01:16:43;9.00;;;2.40;;
51288;SDS011;37372;52.294;5.152;2023-06-14T01:19:10;5.15;;;2.35;;
51288;SDS011;37372;52.294;5.152;2023-06-14T01:21:38;6.68;;;2.60;;
51288;SDS011;37372;52.294;5.152;2023-06-14T01:24:10;9.40;;;2.55;;
51288;SDS011;37372;52.294;5.152;2023-06-14T01:26:37;10.10;;;2.78;;
51288;SDS011;37372;52.294;5.152;2023-06-14T01:29:10;6.70;;;2.78;;
51288;SDS011;37372;52.294;5.152;2023-06-14T01:31:42;8.52;;;3.40;;
51288;SDS011;37372;52.294;5.152;2023-06-14T01:34:12;5.85;;;2.63;;
51288;SDS011;37372;52.294;5.152;2023-06-14T01:36:44;11.25;;;3.90;;
51288;SDS011;37372;52.294;5.152;2023-06-14T01:39:14;6.63;;;3.25;;
51288;SDS011;37372;52.294;5.152;2023-06-14T01:41:48;5.72;;;2.45;;
51288;SDS011;37372;52.294;5.152;2023-06-14T01:44:15;6.53;;;2.63;;
51288;SDS011;37372;52.294;5.152;2023-06-14T01:46:45;7.38;;;2.30;;
51288;SDS011;37372;52.294;5.152;2023-06-14T01:49:11;7.65;;;2.20;;
51288;SDS011;37372;52.294;5.152;2023-06-14T01:51:45;11.90;;;3.95;;
51288;SDS011;37372;52.294;5.152;2023-06-14T01:54:22;6.80;;;2.65;;
51288;SDS011;37372;52.294;5.152;2023-06-14T01:56:47;6.82;;;2.10;;
51288;SDS011;37372;52.294;5.152;2023-06-14T01:59:13;9.13;;;2.53;;
51288;SDS011;37372;52.294;5.152;2023-06-14T02:01:39;17.80;;;2.78;;
51288;SDS011;37372;52.294;5.152;2023-06-14T02:04:16;7.85;;;2.33;;
51288;SDS011;37372;52.294;5.152;2023-06-14T02:06:45;11.18;;;2.63;;
51288;SDS011;37372;52.294;5.152;2023-06-14T02:09:13;9.07;;;2.70;;
51288;SDS011;37372;52.294;5.152;2023-06-14T02:11:42;7.53;;;2.60;;
51288;SDS011;37372;52.294;5.152;2023-06-14T02:14:21;5.32;;;2.33;;
51288;SDS011;37372;52.294;5.152;2023-06-14T02:16:50;10.63;;;2.70;;
51288;SDS011;37372;52.294;5.152;2023-06-14T02:19:16;11.68;;;2.50;;
51288;SDS011;37372;52.294;5.152;2023-06-14T02:21:45;9.85;;;2.40;;
51288;SDS011;37372;52.294;5.152;2023-06-14T02:24:20;5.78;;;2.33;;
51288;SDS011;37372;52.294;5.152;2023-06-14T02:26:57;9.07;;;3.08;;
51288;SDS011;37372;52.294;5.152;2023-06-14T02:29:25;6.30;;;2.20;;
51288;SDS011;37372;52.294;5.152;2023-06-14T02:31:53;5.82;;;2.63;;
51288;SDS011;37372;52.294;5.152;2023-06-14T02:34:19;4.65;;;2.25;;
51288;SDS011;37372;52.294;5.152;2023-06-14T02:36:56;11.90;;;2.65;;
51288;SDS011;37372;52.294;5.152;2023-06-14T02:39:22;7.18;;;3.10;;
51288;SDS011;37372;52.294;5.152;2023-06-14T02:41:55;7.82;;;2.30;;
51288;SDS011;37372;52.294;5.152;2023-06-14T02:44:24;5.82;;;2.40;;
51288;SDS011;37372;52.294;5.152;2023-06-14T02:46:57;6.10;;;2.63;;
51288;SDS011;37372;52.294;5.152;2023-06-14T02:49:23;8.45;;;2.80;;
51288;SDS011;37372;52.294;5.152;2023-06-14T02:51:51;5.50;;;2.13;;
51288;SDS011;37372;52.294;5.152;2023-06-14T02:54:22;8.85;;;2.13;;
51288;SDS011;37372;52.294;5.152;2023-06-14T02:56:49;6.70;;;2.38;;
51288;SDS011;37372;52.294;5.152;2023-06-14T02:59:24;9.63;;;2.65;;
51288;SDS011;37372;52.294;5.152;2023-06-14T03:04:32;7.15;;;2.33;;
51288;SDS011;37372;52.294;5.152;2023-06-14T03:07:04;4.85;;;2.90;;
51288;SDS011;37372;52.294;5.152;2023-06-14T03:09:35;8.30;;;2.30;;
51288;SDS011;37372;52.294;5.152;2023-06-14T03:12:04;8.93;;;2.75;;
51288;SDS011;37372;52.294;5.152;2023-06-14T03:14:34;3.92;;;1.95;;
51288;SDS011;37372;52.294;5.152;2023-06-14T03:17:07;7.63;;;2.65;;
51288;SDS011;37372;52.294;5.152;2023-06-14T03:19:33;9.38;;;3.13;;
51288;SDS011;37372;52.294;5.152;2023-06-14T03:22:02;7.90;;;2.55;;
51288;SDS011;37372;52.294;5.152;2023-06-14T03:24:28;6.70;;;2.03;;
51288;SDS011;37372;52.294;5.152;2023-06-14T03:26:54;8.02;;;1.92;;
51288;SDS011;37372;52.294;5.152;2023-06-14T03:29:23;9.75;;;2.30;;
51288;SDS011;37372;52.294;5.152;2023-06-14T03:32:07;5.45;;;2.22;;
51288;SDS011;37372;52.294;5.152;2023-06-14T03:34:33;10.52;;;2.55;;
51288;SDS011;37372;52.294;5.152;2023-06-14T03:37:06;4.78;;;2.20;;
51288;SDS011;37372;52.294;5.152;2023-06-14T03:39:32;6.63;;;2.33;;
51288;SDS011;37372;52.294;5.152;2023-06-14T03:41:57;8.02;;;2.40;;
51288;SDS011;37372;52.294;5.152;2023-06-14T03:44:22;8.77;;;2.70;;
51288;SDS011;37372;52.294;5.152;2023-06-14T03:46:48;7.47;;;2.72;;
51288;SDS011;37372;52.294;5.152;2023-06-14T03:49:16;5.88;;;2.22;;
51288;SDS011;37372;52.294;5.152;2023-06-14T03:51:42;7.65;;;2.53;;
51288;SDS011;37372;52.294;5.152;2023-06-14T03:54:07;9.90;;;2.55;;
51288;SDS011;37372;52.294;5.152;2023-06-14T03:56:32;8.63;;;2.33;;
51288;SDS011;37372;52.294;5.152;2023-06-14T03:58:58;7.45;;;1.95;;
51288;SDS011;37372;52.294;5.152;2023-06-14T04:01:25;3.65;;;2.10;;
51288;SDS011;37372;52.294;5.152;2023-06-14T04:03:54;6.55;;;2.20;;
51288;SDS011;37372;52.294;5.152;2023-06-14T04:06:20;7.00;;;2.33;;
51288;SDS011;37372;52.294;5.152;2023-06-14T04:08:59;11.88;;;4.00;;
51288;SDS011;37372;52.294;5.152;2023-06-14T04:11:29;5.95;;;2.40;;
51288;SDS011;37372;52.294;5.152;2023-06-14T04:14:05;6.53;;;2.80;;
51288;SDS011;37372;52.294;5.152;2023-06-14T04:16:37;8.73;;;4.00;;
51288;SDS011;37372;52.294;5.152;2023-06-14T04:19:02;5.47;;;2.30;;
51288;SDS011;37372;52.294;5.152;2023-06-14T04:21:28;7.82;;;2.75;;
51288;SDS011;37372;52.294;5.152;2023-06-14T04:23:54;10.63;;;3.17;;
51288;SDS011;37372;52.294;5.152;2023-06-14T04:26:21;15.77;;;6.03;;
51288;SDS011;37372;52.294;5.152;2023-06-14T04:28:49;7.45;;;2.55;;
51288;SDS011;37372;52.294;5.152;2023-06-14T04:31:17;8.13;;;2.90;;
51288;SDS011;37372;52.294;5.152;2023-06-14T04:33:43;4.60;;;2.25;;
51288;SDS011;37372;52.294;5.152;2023-06-14T04:36:09;8.85;;;2.75;;
51288;SDS011;37372;52.294;5.152;2023-06-14T04:38:39;7.68;;;2.20;;
51288;SDS011;37372;52.294;5.152;2023-06-14T04:41:04;7.07;;;2.22;;
51288;SDS011;37372;52.294;5.152;2023-06-14T04:43:33;7.13;;;2.83;;
51288;SDS011;37372;52.294;5.152;2023-06-14T04:46:05;6.38;;;2.35;;
51288;SDS011;37372;52.294;5.152;2023-06-14T04:48:39;8.57;;;3.10;;
51288;SDS011;37372;52.294;5.152;2023-06-14T04:51:09;6.50;;;2.78;;
51288;SDS011;37372;52.294;5.152;2023-06-14T04:53:35;11.05;;;2.70;;
51288;SDS011;37372;52.294;5.152;2023-06-14T04:56:01;6.43;;;2.67;;
51288;SDS011;37372;52.294;5.152;2023-06-14T04:58:27;8.70;;;2.67;;
51288;SDS011;37372;52.294;5.152;2023-06-14T05:00:53;5.07;;;2.50;;
51288;SDS011;37372;52.294;5.152;2023-06-14T05:03:21;6.60;;;2.42;;
51288;SDS011;37372;52.294;5.152;2023-06-14T05:05:48;7.53;;;2.40;;
51288;SDS011;37372;52.294;5.152;2023-06-14T05:08:20;5.53;;;2.80;;
51288;SDS011;37372;52.294;5.152;2023-06-14T05:10:49;10.07;;;3.60;;
51288;SDS011;37372;52.294;5.152;2023-06-14T05:13:20;12.95;;;2.80;;
51288;SDS011;37372;52.294;5.152;2023-06-14T05:15:48;6.55;;;2.85;;
51288;SDS011;37372;52.294;5.152;2023-06-14T05:18:16;11.27;;;3.47;;
51288;SDS011;37372;52.294;5.152;2023-06-14T05:20:46;9.40;;;2.17;;
51288;SDS011;37372;52.294;5.152;2023-06-14T05:23:22;8.45;;;2.50;;
51288;SDS011;37372;52.294;5.152;2023-06-14T05:25:48;7.20;;;2.55;;
51288;SDS011;37372;52.294;5.152;2023-06-14T05:28:17;5.35;;;2.40;;
51288;SDS011;37372;52.294;5.152;2023-06-14T05:30:48;4.75;;;2.10;;
51288;SDS011;37372;52.294;5.152;2023-06-14T05:33:22;5.25;;;2.40;;
51288;SDS011;37372;52.294;5.152;2023-06-14T05:35:51;5.70;;;2.30;;
51288;SDS011;37372;52.294;5.152;2023-06-14T05:38:17;6.88;;;2.80;;
51288;SDS011;37372;52.294;5.152;2023-06-14T05:40:51;6.90;;;2.60;;
51288;SDS011;37372;52.294;5.152;2023-06-14T05:43:26;5.45;;;2.65;;
51288;SDS011;37372;52.294;5.152;2023-06-14T05:45:51;6.00;;;2.22;;
51288;SDS011;37372;52.294;5.152;2023-06-14T05:48:20;5.10;;;2.20;;
51288;SDS011;37372;52.294;5.152;2023-06-14T05:50:51;5.43;;;2.70;;
51288;SDS011;37372;52.294;5.152;2023-06-14T05:53:20;9.00;;;2.97;;
51288;SDS011;37372;52.294;5.152;2023-06-14T05:55:46;6.35;;;2.65;;
51288;SDS011;37372;52.294;5.152;2023-06-14T05:58:31;5.88;;;2.50;;
51288;SDS011;37372;52.294;5.152;2023-06-14T06:00:56;6.68;;;2.70;;
51288;SDS011;37372;52.294;5.152;2023-06-14T06:03:24;5.63;;;2.58;;
51288;SDS011;37372;52.294;5.152;2023-06-14T06:05:55;7.82;;;2.80;;
51288;SDS011;37372;52.294;5.152;2023-06-14T06:08:28;6.55;;;3.10;;
51288;SDS011;37372;52.294;5.152;2023-06-14T06:10:53;7.75;;;2.40;;
51288;SDS011;37372;52.294;5.152;2023-06-14T06:13:24;11.05;;;2.72;;
51288;SDS011;37372;52.294;5.152;2023-06-14T06:15:56;5.43;;;2.28;;
51288;SDS011;37372;52.294;5.152;2023-06-14T06:18:27;6.40;;;2.58;;
51288;SDS011;37372;52.294;5.152;2023-06-14T06:21:05;4.68;;;2.85;;
51288;SDS011;37372;52.294;5.152;2023-06-14T06:23:31;5.38;;;2.63;;
51288;SDS011;37372;52.294;5.152;2023-06-14T06:26:15;7.25;;;3.03;;
51288;SDS011;37372;52.294;5.152;2023-06-14T06:28:41;9.27;;;2.33;;
51288;SDS011;37372;52.294;5.152;2023-06-14T06:31:09;9.30;;;2.05;;
51288;SDS011;37372;52.294;5.152;2023-06-14T06:33:40;10.05;;;2.45;;
51288;SDS011;37372;52.294;5.152;2023-06-14T06:36:19;7.63;;;2.70;;
51288;SDS011;37372;52.294;5.152;2023-06-14T06:38:46;6.72;;;2.80;;
51288;SDS011;37372;52.294;5.152;2023-06-14T06:41:12;7.20;;;2.10;;
51288;SDS011;37372;52.294;5.152;2023-06-14T06:43:37;4.07;;;2.15;;
51288;SDS011;37372;52.294;5.152;2023-06-14T06:46:09;6.53;;;2.33;;
51288;SDS011;37372;52.294;5.152;2023-06-14T06:48:37;5.35;;;2.53;;
51288;SDS011;37372;52.294;5.152;2023-06-14T06:51:03;8.52;;;2.28;;
51288;SDS011;37372;52.294;5.152;2023-06-14T06:53:51;6.10;;;3.00;;
51288;SDS011;37372;52.294;5.152;2023-06-14T06:56:21;7.47;;;3.42;;
51288;SDS011;37372;52.294;5.152;2023-06-14T06:58:50;5.90;;;2.38;;
51288;SDS011;37372;52.294;5.152;2023-06-14T07:01:16;5.47;;;2.80;;
51288;SDS011;37372;52.294;5.152;2023-06-14T07:03:42;6.60;;;2.70;;
51288;SDS011;37372;52.294;5.152;2023-06-14T07:06:07;9.30;;;2.28;;
51288;SDS011;37372;52.294;5.152;2023-06-14T07:08:35;6.82;;;2.35;;
51288;SDS011;37372;52.294;5.152;2023-06-14T07:11:17;8.07;;;2.78;;
51288;SDS011;37372;52.294;5.152;2023-06-14T07:13:46;6.55;;;2.63;;
51288;SDS011;37372;52.294;5.152;2023-06-14T07:16:21;6.55;;;2.63;;
51288;SDS011;37372;52.294;5.152;2023-06-14T07:18:53;4.45;;;2.10;;
51288;SDS011;37372;52.294;5.152;2023-06-14T07:21:18;8.45;;;2.55;;
51288;SDS011;37372;52.294;5.152;2023-06-14T07:23:44;7.43;;;2.75;;
51288;SDS011;37372;52.294;5.152;2023-06-14T07:26:16;5.60;;;2.63;;
51288;SDS011;37372;52.294;5.152;2023-06-14T07:28:47;8.95;;;2.90;;
51288;SDS011;37372;52.294;5.152;2023-06-14T07:31:15;11.05;;;3.00;;
51288;SDS011;37372;52.294;5.152;2023-06-14T07:33:51;10.82;;;2.42;;
51288;SDS011;37372;52.294;5.152;2023-06-14T07:36:17;6.65;;;2.65;;
51288;SDS011;37372;52.294;5.152;2023-06-14T07:38:43;6.22;;;2.80;;
51288;SDS011;37372;52.294;5.152;2023-06-14T07:41:18;5.05;;;2.38;;
51288;SDS011;37372;52.294;5.152;2023-06-14T07:43:54;11.35;;;2.53;;
51288;SDS011;37372;52.294;5.152;2023-06-14T07:46:20;7.18;;;2.42;;
51288;SDS011;37372;52.294;5.152;2023-06-14T07:48:45;5.10;;;2.25;;
51288;SDS011;37372;52.294;5.152;2023-06-14T07:51:16;4.07;;;1.90;;
51288;SDS011;37372;52.294;5.152;2023-06-14T07:53:51;5.90;;;2.35;;
51288;SDS011;37372;52.294;5.152;2023-06-14T07:56:17;5.78;;;2.15;;
51288;SDS011;37372;52.294;5.152;2023-06-14T07:58:49;6.80;;;1.90;;
51288;SDS011;37372;52.294;5.152;2023-06-14T08:01:21;4.45;;;2.10;;
51288;SDS011;37372;52.294;5.152;2023-06-14T08:03:52;10.55;;;2.83;;
51288;SDS011;37372;52.294;5.152;2023-06-14T08:06:17;4.85;;;2.20;;
51288;SDS011;37372;52.294;5.152;2023-06-14T08:08:53;6.72;;;2.03;;
51288;SDS011;37372;52.294;5.152;2023-06-14T08:11:21;7.05;;;1.90;;
51288;SDS011;37372;52.294;5.152;2023-06-14T08:13:49;9.13;;;2.17;;
51288;SDS011;37372;52.294;5.152;2023-06-14T08:16:18;5.22;;;1.98;;
51288;SDS011;37372;52.294;5.152;2023-06-14T08:18:47;3.42;;;1.88;;
51288;SDS011;37372;52.294;5.152;2023-06-14T08:21:21;4.43;;;2.60;;
51288;SDS011;37372;52.294;5.152;2023-06-14T08:23:53;7.93;;;2.10;;
51288;SDS011;37372;52.294;5.152;2023-06-14T08:26:28;5.78;;;2.08;;
51288;SDS011;37372;52.294;5.152;2023-06-14T08:28:57;9.25;;;2.22;;
51288;SDS011;37372;52.294;5.152;2023-06-14T08:31:23;5.15;;;1.58;;
51288;SDS011;37372;52.294;5.152;2023-06-14T08:33:57;4.30;;;1.92;;
51288;SDS011;37372;52.294;5.152;2023-06-14T08:36:26;4.78;;;1.33;;
51288;SDS011;37372;52.294;5.152;2023-06-14T08:39:07;5.45;;;1.45;;
51288;SDS011;37372;52.294;5.152;2023-06-14T08:41:40;4.50;;;1.80;;
51288;SDS011;37372;52.294;5.152;2023-06-14T08:46:37;3.45;;;1.60;;
51288;SDS011;37372;52.294;5.152;2023-06-14T08:49:04;1.70;;;1.20;;
51288;SDS011;37372;52.294;5.152;2023-06-14T08:51:36;5.57;;;1.50;;
51288;SDS011;37372;52.294;5.152;2023-06-14T08:54:12;3.97;;;1.75;;
51288;SDS011;37372;52.294;5.152;2023-06-14T08:56:39;3.80;;;2.15;;
51288;SDS011;37372;52.294;5.152;2023-06-14T08:59:15;5.13;;;1.60;;
51288;SDS011;37372;52.294;5.152;2023-06-14T09:01:46;4.60;;;1.60;;
51288;SDS011;37372;52.294;5.152;2023-06-14T09:04:13;2.53;;;1.60;;
51288;SDS011;37372;52.294;5.152;2023-06-14T09:06:49;7.43;;;1.70;;
51288;SDS011;37372;52.294;5.152;2023-06-14T09:09:24;3.85;;;1.67;;
51288;SDS011;37372;52.294;5.152;2023-06-14T09:11:50;3.88;;;1.60;;
51288;SDS011;37372;52.294;5.152;2023-06-14T09:14:19;5.93;;;1.80;;
51288;SDS011;37372;52.294;5.152;2023-06-14T09:16:53;5.78;;;1.70;;
51288;SDS011;37372;52.294;5.152;2023-06-14T09:19:25;2.95;;;2.00;;
51288;SDS011;37372;52.294;5.152;2023-06-14T09:21:52;3.17;;;1.42;;
51288;SDS011;37372;52.294;5.152;2023-06-14T09:24:27;2.90;;;1.50;;
51288;SDS011;37372;52.294;5.152;2023-06-14T09:26:52;4.82;;;1.40;;
51288;SDS011;37372;52.294;5.152;2023-06-14T09:29:18;14.88;;;2.42;;
51288;SDS011;37372;52.294;5.152;2023-06-14T09:31:57;2.83;;;1.48;;
51288;SDS011;37372;52.294;5.152;2023-06-14T09:34:23;5.82;;;1.50;;
51288;SDS011;37372;52.294;5.152;2023-06-14T09:36:52;9.38;;;1.60;;
51288;SDS011;37372;52.294;5.152;2023-06-14T09:39:17;4.38;;;1.42;;
51288;SDS011;37372;52.294;5.152;2023-06-14T09:41:46;2.88;;;1.42;;
51288;SDS011;37372;52.294;5.152;2023-06-14T09:44:11;2.72;;;1.55;;
51288;SDS011;37372;52.294;5.152;2023-06-14T09:46:45;2.58;;;1.65;;
51288;SDS011;37372;52.294;5.152;2023-06-14T09:49:15;2.60;;;1.33;;
51288;SDS011;37372;52.294;5.152;2023-06-14T09:51:51;6.53;;;1.92;;
51288;SDS011;37372;52.294;5.152;2023-06-14T09:54:20;2.80;;;1.35;;
51288;SDS011;37372;52.294;5.152;2023-06-14T09:56:47;2.97;;;1.50;;
51288;SDS011;37372;52.294;5.152;2023-06-14T09:59:19;3.15;;;1.42;;
51288;SDS011;37372;52.294;5.152;2023-06-14T10:01:55;3.30;;;1.50;;
51288;SDS011;37372;52.294;5.152;2023-06-14T10:04:24;8.45;;;1.60;;
51288;SDS011;37372;52.294;5.152;2023-06-14T10:06:52;4.78;;;1.42;;
51288;SDS011;37372;52.294;5.152;2023-06-14T10:09:19;5.25;;;1.92;;
51288;SDS011;37372;52.294;5.152;2023-06-14T10:11:49;3.03;;;1.50;;
51288;SDS011;37372;52.294;5.152;2023-06-14T10:14:16;6.03;;;1.73;;
51288;SDS011;37372;52.294;5.152;2023-06-14T10:17:04;2.25;;;1.17;;
51288;SDS011;37372;52.294;5.152;2023-06-14T10:19:37;2.67;;;1.42;;
51288;SDS011;37372;52.294;5.152;2023-06-14T10:22:19;4.13;;;1.45;;
51288;SDS011;37372;52.294;5.152;2023-06-14T10:24:50;16.65;;;2.58;;
51288;SDS011;37372;52.294;5.152;2023-06-14T10:27:16;4.03;;;1.60;;
51288;SDS011;37372;52.294;5.152;2023-06-14T10:32:21;7.22;;;1.55;;
51288;SDS011;37372;52.294;5.152;2023-06-14T10:37:46;6.72;;;1.33;;
51288;SDS011;37372;52.294;5.152;2023-06-14T10:40:29;5.00;;;1.73;;
51288;SDS011;37372;52.294;5.152;2023-06-14T10:42:55;3.25;;;1.27;;
51288;SDS011;37372;52.294;5.152;2023-06-14T10:45:21;4.93;;;1.80;;
51288;SDS011;37372;52.294;5.152;2023-06-14T10:47:46;2.88;;;1.60;;
51288;SDS011;37372;52.294;5.152;2023-06-14T10:50:17;4.47;;;1.60;;
51288;SDS011;37372;52.294;5.152;2023-06-14T10:52:52;3.85;;;1.48;;
51288;SDS011;37372;52.294;5.152;2023-06-14T10:55:18;3.10;;;1.65;;
51288;SDS011;37372;52.294;5.152;2023-06-14T10:57:48;11.80;;;2.03;;
51288;SDS011;37372;52.294;5.152;2023-06-14T11:00:21;4.83;;;1.80;;
51288;SDS011;37372;52.294;5.152;2023-06-14T11:03:05;7.35;;;1.65;;
51288;SDS011;37372;52.294;5.152;2023-06-14T11:05:50;3.55;;;1.52;;
51288;SDS011;37372;52.294;5.152;2023-06-14T11:11:10;2.72;;;1.40;;
51288;SDS011;37372;52.294;5.152;2023-06-14T11:13:41;5.78;;;1.52;;
51288;SDS011;37372;52.294;5.152;2023-06-14T11:16:13;5.47;;;2.17;;
51288;SDS011;37372;52.294;5.152;2023-06-14T11:19:00;4.40;;;1.30;;
51288;SDS011;37372;52.294;5.152;2023-06-14T11:21:28;5.97;;;1.75;;
51288;SDS011;37372;52.294;5.152;2023-06-14T11:23:58;4.50;;;1.30;;
51288;SDS011;37372;52.294;5.152;2023-06-14T11:26:31;6.35;;;1.92;;
51288;SDS011;37372;52.294;5.152;2023-06-14T11:28:59;13.57;;;2.63;;
51288;SDS011;37372;52.294;5.152;2023-06-14T11:31:26;2.35;;;1.40;;
51288;SDS011;37372;52.294;5.152;2023-06-14T11:33:53;5.47;;;1.33;;
51288;SDS011;37372;52.294;5.152;2023-06-14T11:36:23;4.80;;;1.75;;
51288;SDS011;37372;52.294;5.152;2023-06-14T11:39:12;5.63;;;1.65;;
51288;SDS011;37372;52.294;5.152;2023-06-14T11:41:39;3.67;;;1.50;;
51288;SDS011;37372;52.294;5.152;2023-06-14T11:44:06;13.38;;;1.88;;
51288;SDS011;37372;52.294;5.152;2023-06-14T11:46:37;3.88;;;1.40;;
51288;SDS011;37372;52.294;5.152;2023-06-14T11:49:03;34.15;;;2.47;;
51288;SDS011;37372;52.294;5.152;2023-06-14T11:51:33;4.53;;;1.35;;
51288;SDS011;37372;52.294;5.152;2023-06-14T11:54:00;3.45;;;1.25;;
51288;SDS011;37372;52.294;5.152;2023-06-14T11:56:28;4.22;;;1.25;;
51288;SDS011;37372;52.294;5.152;2023-06-14T11:58:54;2.97;;;1.40;;
51288;SDS011;37372;52.294;5.152;2023-06-14T12:01:24;5.50;;;1.63;;
51288;SDS011;37372;52.294;5.152;2023-06-14T12:03:50;5.07;;;1.27;;
51288;SDS011;37372;52.294;5.152;2023-06-14T12:06:30;5.90;;;1.95;;
51288;SDS011;37372;52.294;5.152;2023-06-14T12:08:58;2.75;;;1.30;;
51288;SDS011;37372;52.294;5.152;2023-06-14T12:11:36;5.60;;;1.45;;
51288;SDS011;37372;52.294;5.152;2023-06-14T12:14:04;7.70;;;1.27;;
51288;SDS011;37372;52.294;5.152;2023-06-14T12:16:36;4.28;;;1.92;;
51288;SDS011;37372;52.294;5.152;2023-06-14T12:19:12;3.75;;;1.60;;
51288;SDS011;37372;52.294;5.152;2023-06-14T12:21:39;2.35;;;1.50;;
51288;SDS011;37372;52.294;5.152;2023-06-14T12:24:12;3.45;;;1.40;;
51288;SDS011;37372;52.294;5.152;2023-06-14T12:26:41;5.05;;;1.63;;
51288;SDS011;37372;52.294;5.152;2023-06-14T12:29:31;27.08;;;2.67;;
51288;SDS011;37372;52.294;5.152;2023-06-14T12:32:09;7.60;;;1.50;;
51288;SDS011;37372;52.294;5.152;2023-06-14T12:37:20;5.20;;;1.50;;
51288;SDS011;37372;52.294;5.152;2023-06-14T12:39:55;3.67;;;1.23;;
51288;SDS011;37372;52.294;5.152;2023-06-14T12:42:25;7.05;;;1.50;;
51288;SDS011;37372;52.294;5.152;2023-06-14T12:44:50;6.85;;;2.22;;
51288;SDS011;37372;52.294;5.152;2023-06-14T12:47:19;5.07;;;1.27;;
51288;SDS011;37372;52.294;5.152;2023-06-14T12:49:50;2.53;;;1.17;;
51288;SDS011;37372;52.294;5.152;2023-06-14T12:52:15;5.32;;;1.58;;
51288;SDS011;37372;52.294;5.152;2023-06-14T12:54:44;9.20;;;1.67;;
51288;SDS011;37372;52.294;5.152;2023-06-14T12:57:10;4.75;;;1.50;;
51288;SDS011;37372;52.294;5.152;2023-06-14T12:59:57;6.65;;;1.80;;
51288;SDS011;37372;52.294;5.152;2023-06-14T13:02:22;3.75;;;1.20;;
51288;SDS011;37372;52.294;5.152;2023-06-14T13:04:49;3.58;;;1.38;;
51288;SDS011;37372;52.294;5.152;2023-06-14T13:07:18;4.47;;;1.63;;
51288;SDS011;37372;52.294;5.152;2023-06-14T13:09:47;5.40;;;1.70;;
51288;SDS011;37372;52.294;5.152;2023-06-14T13:12:13;10.15;;;2.15;;
51288;SDS011;37372;52.294;5.152;2023-06-14T13:17:17;5.20;;;1.20;;
51288;SDS011;37372;52.294;5.152;2023-06-14T13:19:51;7.32;;;1.17;;
51288;SDS011;37372;52.294;5.152;2023-06-14T13:22:20;4.53;;;1.30;;
51288;SDS011;37372;52.294;5.152;2023-06-14T13:24:45;4.20;;;1.50;;
51288;SDS011;37372;52.294;5.152;2023-06-14T13:27:19;4.32;;;1.40;;
51288;SDS011;37372;52.294;5.152;2023-06-14T13:29:50;4.15;;;1.50;;
51288;SDS011;37372;52.294;5.152;2023-06-14T13:32:16;6.20;;;1.38;;
51288;SDS011;37372;52.294;5.152;2023-06-14T13:34:43;6.18;;;1.38;;
51288;SDS011;37372;52.294;5.152;2023-06-14T13:37:25;4.67;;;1.50;;
51288;SDS011;37372;52.294;5.152;2023-06-14T13:39:57;4.43;;;1.50;;
51288;SDS011;37372;52.294;5.152;2023-06-14T13:42:25;5.22;;;1.33;;
51288;SDS011;37372;52.294;5.152;2023-06-14T13:44:51;7.10;;;2.38;;
51288;SDS011;37372;52.294;5.152;2023-06-14T13:47:32;11.23;;;2.03;;
51288;SDS011;37372;52.294;5.152;2023-06-14T13:49:58;4.18;;;1.40;;
51288;SDS011;37372;52.294;5.152;2023-06-14T13:52:30;3.40;;;1.25;;
51288;SDS011;37372;52.294;5.152;2023-06-14T13:54:56;2.47;;;1.15;;
51288;SDS011;37372;52.294;5.152;2023-06-14T13:57:42;5.10;;;1.77;;
51288;SDS011;37372;52.294;5.152;2023-06-14T14:00:08;14.38;;;1.80;;
51288;SDS011;37372;52.294;5.152;2023-06-14T14:02:34;4.78;;;1.50;;
51288;SDS011;37372;52.294;5.152;2023-06-14T14:05:07;8.82;;;1.77;;
51288;SDS011;37372;52.294;5.152;2023-06-14T14:07:33;3.63;;;1.58;;
51288;SDS011;37372;52.294;5.152;2023-06-14T14:09:59;4.00;;;1.30;;
51288;SDS011;37372;52.294;5.152;2023-06-14T14:12:25;5.15;;;1.40;;
51288;SDS011;37372;52.294;5.152;2023-06-14T14:17:43;7.25;;;1.60;;
51288;SDS011;37372;52.294;5.152;2023-06-14T14:20:08;4.20;;;1.33;;
51288;SDS011;37372;52.294;5.152;2023-06-14T14:22:36;6.47;;;2.10;;
51288;SDS011;37372;52.294;5.152;2023-06-14T14:25:11;5.15;;;1.25;;
51288;SDS011;37372;52.294;5.152;2023-06-14T14:27:37;28.65;;;3.45;;
51288;SDS011;37372;52.294;5.152;2023-06-14T14:30:24;9.27;;;2.08;;
51288;SDS011;37372;52.294;5.152;2023-06-14T14:32:51;10.30;;;2.88;;
51288;SDS011;37372;52.294;5.152;2023-06-14T14:35:19;15.52;;;4.35;;
51288;SDS011;37372;52.294;5.152;2023-06-14T14:37:45;4.80;;;1.63;;
51288;SDS011;37372;52.294;5.152;2023-06-14T14:40:14;6.95;;;1.75;;
51288;SDS011;37372;52.294;5.152;2023-06-14T14:42:41;11.52;;;1.95;;
51288;SDS011;37372;52.294;5.152;2023-06-14T14:45:12;5.90;;;1.90;;
51288;SDS011;37372;52.294;5.152;2023-06-14T14:47:40;5.05;;;1.70;;
51288;SDS011;37372;52.294;5.152;2023-06-14T14:50:08;4.55;;;1.40;;
51288;SDS011;37372;52.294;5.152;2023-06-14T14:52:39;4.18;;;1.48;;
51288;SDS011;37372;52.294;5.152;2023-06-14T14:55:14;4.18;;;1.20;;
51288;SDS011;37372;52.294;5.152;2023-06-14T14:57:40;5.30;;;1.35;;
51288;SDS011;37372;52.294;5.152;2023-06-14T15:00:15;8.48;;;1.50;;
51288;SDS011;37372;52.294;5.152;2023-06-14T15:02:54;6.43;;;1.50;;
51288;SDS011;37372;52.294;5.152;2023-06-14T15:05:22;8.32;;;2.15;;
51288;SDS011;37372;52.294;5.152;2023-06-14T15:07:57;7.45;;;1.33;;
51288;SDS011;37372;52.294;5.152;2023-06-14T15:10:36;4.43;;;1.58;;
51288;SDS011;37372;52.294;5.152;2023-06-14T15:13:02;16.90;;;2.50;;
51288;SDS011;37372;52.294;5.152;2023-06-14T15:15:27;3.72;;;1.55;;
51288;SDS011;37372;52.294;5.152;2023-06-14T15:17:55;3.25;;;1.60;;
51288;SDS011;37372;52.294;5.152;2023-06-14T15:22:53;6.30;;;1.52;;
51288;SDS011;37372;52.294;5.152;2023-06-14T15:25:24;2.42;;;1.10;;
51288;SDS011;37372;52.294;5.152;2023-06-14T15:28:00;8.73;;;1.45;;